createdAt,value
2022-11-16T00:00:26.134Z,20.95
2022-11-16T00:02:28.109Z,18.30
2022-11-16T02:18:32.209Z,14.85
2022-11-16T02:20:44.051Z,21.27
2022-11-16T02:23:13.659Z,23.05
2022-11-16T02:25:34.542Z,19.42
2022-11-16T02:28:03.831Z,20.20
2022-11-16T02:30:06.999Z,18.45
2022-11-16T02:32:15.500Z,19.65
2022-11-16T02:34:19.475Z,17.20
2022-11-16T02:36:23.722Z,20.58
2022-11-16T02:38:32.980Z,17.10
2022-11-16T02:40:39.365Z,21.50
2022-11-16T02:42:59.416Z,17.90
2022-11-16T02:45:02.784Z,19.63
2022-11-16T02:47:11.813Z,17.80
2022-11-16T02:49:19.495Z,19.05
2022-11-16T02:51:22.892Z,18.25
2022-11-16T02:53:25.884Z,18.10
2022-11-16T02:55:30.409Z,16.05
2022-11-16T02:58:01.242Z,24.33
2022-11-16T03:00:05.612Z,17.95
2022-11-16T03:02:21.421Z,20.05
2022-11-16T03:04:56.613Z,20.30
2022-11-16T03:07:02.311Z,21.63
2022-11-16T03:09:21.512Z,20.42
2022-11-16T03:11:42.321Z,18.05
2022-11-16T03:13:45.376Z,18.38
2022-11-16T03:15:49.070Z,21.92
2022-11-16T03:17:50.952Z,22.60
2022-11-16T03:20:02.219Z,22.35
2022-11-16T03:22:12.773Z,23.60
2022-11-16T03:24:15.222Z,23.17
2022-11-16T03:26:22.645Z,24.73
2022-11-16T03:28:27.509Z,24.15
2022-11-16T03:30:35.647Z,24.42
2022-11-16T03:32:43.137Z,20.95
2022-11-16T03:34:56.008Z,22.85
2022-11-16T03:37:00.506Z,21.67
2022-11-16T03:39:19.008Z,22.38
2022-11-16T03:41:23.532Z,26.65
2022-11-16T03:43:27.319Z,25.23
2022-11-16T03:45:30.352Z,24.33
2022-11-16T03:47:32.270Z,23.73
2022-11-16T03:49:34.340Z,28.10
2022-11-16T03:53:37.976Z,24.83
2022-11-16T03:55:40.121Z,29.35
2022-11-16T03:59:43.743Z,23.83
2022-11-16T04:01:45.674Z,24.58
2022-11-16T04:03:47.673Z,24.50
2022-11-16T04:08:35.031Z,23.60
2022-11-16T04:10:55.420Z,25.48
2022-11-16T04:13:31.731Z,25.40
2022-11-16T04:15:51.928Z,26.27
2022-11-16T04:18:12.542Z,22.25
2022-11-16T04:20:34.250Z,23.45
2022-11-16T04:23:06.505Z,28.13
2022-11-16T04:25:26.948Z,26.35
2022-11-16T04:27:49.435Z,23.73
2022-11-16T04:32:11.679Z,24.85
2022-11-16T04:34:32.263Z,22.13
2022-11-16T04:36:52.771Z,26.23
2022-11-16T04:38:54.640Z,24.33
2022-11-16T04:40:56.476Z,23.50
2022-11-16T04:43:03.379Z,18.38
2022-11-16T04:45:23.996Z,20.38
2022-11-16T04:47:25.800Z,25.13
2022-11-16T04:49:27.888Z,24.63
2022-11-16T04:53:31.493Z,24.87
2022-11-16T04:55:34.069Z,19.42
2022-11-16T04:57:36.113Z,22.23
2022-11-16T04:59:37.960Z,20.77
2022-11-16T05:01:58.417Z,22.48
2022-11-16T05:04:00.277Z,28.23
2022-11-16T05:06:02.104Z,24.83
2022-11-16T05:08:05.477Z,24.38
2022-11-16T05:10:09.201Z,23.27
2022-11-16T05:12:18.101Z,29.63
2022-11-16T05:14:20.078Z,23.65
2022-11-16T05:16:22.008Z,25.25
2022-11-16T05:18:23.917Z,24.92
2022-11-16T05:20:44.414Z,43.00
2022-11-16T05:22:55.981Z,27.45
2022-11-16T05:24:57.891Z,20.42
2022-11-16T05:27:04.672Z,30.35
2022-11-16T05:29:06.492Z,31.13
2022-11-16T05:31:08.384Z,32.90
2022-11-16T05:33:10.263Z,35.25
2022-11-16T05:35:12.125Z,28.92
2022-11-16T05:37:14.577Z,27.10
2022-11-16T05:39:16.874Z,35.05
2022-11-16T05:41:18.737Z,33.97
2022-11-16T05:43:20.574Z,26.23
2022-11-16T05:45:22.463Z,27.10
2022-11-16T05:47:24.381Z,51.70
2022-11-16T05:49:26.334Z,58.42
2022-11-16T05:51:28.284Z,54.00
2022-11-16T05:53:30.136Z,49.83
2022-11-16T05:55:31.960Z,59.08
2022-11-16T05:57:33.843Z,49.85
2022-11-16T05:59:36.061Z,57.17
2022-11-16T08:20:16.969Z,16.55
2022-11-16T08:22:18.794Z,14.13
2022-11-16T08:24:20.694Z,14.30
2022-11-16T08:26:22.946Z,13.60
2022-11-16T08:28:24.985Z,15.77
2022-11-16T08:30:26.984Z,19.40
2022-11-16T08:34:34.223Z,14.18
2022-11-16T08:36:36.251Z,14.65
2022-11-16T08:38:40.622Z,17.08
2022-11-16T08:40:42.460Z,14.32
2022-11-16T08:42:44.474Z,15.20
2022-11-16T08:44:46.425Z,19.00
2022-11-16T08:46:48.252Z,18.73
2022-11-16T08:48:54.518Z,19.10
2022-11-16T08:51:16.953Z,14.43
2022-11-16T08:53:20.217Z,19.00
2022-11-16T08:55:22.046Z,17.38
2022-11-16T08:57:23.892Z,20.90
2022-11-16T08:59:25.720Z,25.50
2022-11-16T09:01:29.937Z,27.92
2022-11-16T09:03:31.825Z,28.58
2022-11-16T09:05:33.687Z,23.27
2022-11-16T09:07:35.600Z,18.13
2022-11-16T09:09:37.605Z,19.45
2022-11-16T09:11:39.588Z,19.20
2022-11-16T09:13:41.703Z,24.85
2022-11-16T09:17:46.950Z,11.95
2022-11-16T09:21:50.607Z,13.73
2022-11-16T09:23:54.226Z,13.40
2022-11-16T09:25:56.130Z,13.82
2022-11-16T09:27:58.088Z,13.50
2022-11-16T09:29:59.915Z,14.40
2022-11-16T09:32:02.299Z,12.05
2022-11-16T09:34:04.639Z,14.85
2022-11-16T09:36:08.774Z,13.70
2022-11-16T09:38:12.702Z,16.20
2022-11-16T09:40:18.176Z,16.73
2022-11-16T09:44:51.565Z,13.93
2022-11-16T09:46:57.688Z,21.05
2022-11-16T09:49:02.830Z,16.52
2022-11-16T09:51:09.681Z,16.00
2022-11-16T09:53:34.261Z,14.95
2022-11-16T09:55:47.647Z,13.95
2022-11-16T09:57:53.971Z,12.73
2022-11-16T10:00:01.660Z,21.63
2022-11-16T10:02:26.952Z,12.65
2022-11-16T10:04:51.418Z,12.20
2022-11-16T10:07:15.597Z,12.48
2022-11-16T10:09:17.755Z,12.48
2022-11-16T10:13:36.704Z,14.98
2022-11-16T10:16:05.238Z,14.25
2022-11-16T10:18:30.257Z,14.55
2022-11-16T10:20:56.694Z,16.77
2022-11-16T10:23:10.345Z,14.77
2022-11-16T10:25:16.675Z,13.45
2022-11-16T10:27:57.600Z,18.08
2022-11-16T10:30:17.633Z,14.50
2022-11-16T10:32:19.737Z,17.38
2022-11-16T10:36:35.915Z,17.58
2022-11-16T10:38:38.590Z,14.95
2022-11-16T10:40:41.412Z,13.43
2022-11-16T10:42:45.195Z,17.20
2022-11-16T10:45:06.444Z,29.02
2022-11-16T10:47:29.403Z,26.45
2022-11-16T10:49:44.903Z,19.42
2022-11-16T10:51:46.877Z,20.25
2022-11-16T10:53:49.587Z,21.10
2022-11-16T10:56:16.073Z,22.48
2022-11-16T10:58:17.973Z,19.08
2022-11-16T11:00:34.945Z,19.40
2022-11-16T11:02:37.343Z,22.40
2022-11-16T11:04:39.314Z,18.00
2022-11-16T11:06:41.770Z,29.50
2022-11-16T11:08:43.644Z,24.48
2022-11-16T11:11:01.794Z,20.48
2022-11-16T11:13:16.088Z,20.65
2022-11-16T11:15:27.095Z,22.40
2022-11-16T11:17:31.056Z,26.83
2022-11-16T11:19:32.928Z,23.20
2022-11-16T11:21:35.164Z,23.20
2022-11-16T11:25:55.283Z,25.77
2022-11-16T11:28:07.540Z,24.95
2022-11-16T11:32:24.693Z,19.98
2022-11-16T11:34:34.534Z,22.45
2022-11-16T11:36:42.021Z,22.83
2022-11-16T11:39:05.637Z,22.67
2022-11-16T11:41:19.595Z,25.27
2022-11-16T11:43:24.615Z,29.42
2022-11-16T11:45:33.532Z,35.50
2022-11-16T11:48:00.824Z,33.78
2022-11-16T11:50:21.104Z,29.13
2022-11-16T11:52:37.873Z,27.85
2022-11-16T11:54:46.788Z,30.40
2022-11-16T11:56:48.799Z,32.33
2022-11-16T11:58:51.902Z,36.13
2022-11-16T14:21:57.424Z,25.60
2022-11-16T14:24:15.020Z,22.27
2022-11-16T14:26:40.873Z,29.63
2022-11-16T14:29:02.128Z,26.95
2022-11-16T14:31:15.900Z,23.48
2022-11-16T14:33:32.028Z,31.40
2022-11-16T14:35:35.927Z,26.73
2022-11-16T14:37:42.348Z,37.03
2022-11-16T14:39:45.071Z,27.45
2022-11-16T14:41:48.622Z,27.05
2022-11-16T14:43:56.868Z,26.23
2022-11-16T14:46:03.599Z,24.00
2022-11-16T14:48:17.791Z,32.35
2022-11-16T14:50:23.198Z,30.50
2022-11-16T14:52:39.672Z,33.90
2022-11-16T14:55:01.538Z,28.15
2022-11-16T14:57:06.299Z,28.77
2022-11-16T14:59:17.592Z,37.15
2022-11-16T15:01:23.967Z,27.38
2022-11-16T15:03:33.895Z,25.48
2022-11-16T15:05:37.516Z,29.83
2022-11-16T15:07:42.932Z,30.17
2022-11-16T15:09:49.589Z,30.33
2022-11-16T15:12:10.655Z,51.35
2022-11-16T15:14:17.969Z,58.63
2022-11-16T15:16:20.420Z,58.63
2022-11-16T15:18:23.265Z,32.95
2022-11-16T15:20:28.592Z,52.22
2022-11-16T15:22:39.107Z,52.92
2022-11-16T15:24:41.124Z,58.08
2022-11-16T15:26:43.550Z,43.72
2022-11-16T15:28:49.879Z,53.25
2022-11-16T15:31:00.701Z,59.03
2022-11-16T15:33:08.320Z,60.13
2022-11-16T15:35:21.738Z,48.08
2022-11-16T15:37:30.277Z,51.55
2022-11-16T15:39:36.188Z,50.50
2022-11-16T15:41:38.741Z,49.58
2022-11-16T15:44:11.761Z,49.70
2022-11-16T15:46:08.966Z,46.28
2022-11-16T15:48:20.920Z,35.30
2022-11-16T15:50:23.976Z,45.45
2022-11-16T15:52:50.166Z,46.75
2022-11-16T15:55:06.787Z,46.50
2022-11-16T15:57:13.476Z,54.40
2022-11-16T15:59:34.211Z,42.88
2022-11-16T16:01:45.206Z,62.65
2022-11-16T16:04:08.169Z,59.70
2022-11-16T16:06:17.629Z,55.28
2022-11-16T16:08:35.577Z,54.10
2022-11-16T16:10:37.567Z,52.53
2022-11-16T16:12:53.865Z,49.53
2022-11-16T16:15:29.900Z,58.13
2022-11-16T16:17:31.851Z,56.63
2022-11-16T16:19:38.886Z,57.53
2022-11-16T16:21:45.818Z,56.13
2022-11-16T16:23:53.793Z,60.97
2022-11-16T16:25:55.723Z,60.50
2022-11-16T16:27:58.374Z,56.40
2022-11-16T16:30:04.871Z,63.25
2022-11-16T16:32:29.317Z,66.72
2022-11-16T16:34:31.167Z,78.95
2022-11-16T16:36:33.014Z,92.63
2022-11-16T16:38:34.957Z,75.85
2022-11-16T16:40:36.900Z,67.18
2022-11-16T16:42:40.914Z,65.13
2022-11-16T16:44:44.169Z,53.97
2022-11-16T16:46:45.983Z,62.63
2022-11-16T16:48:48.353Z,62.63
2022-11-16T16:50:50.354Z,68.40
2022-11-16T16:52:52.183Z,68.72
2022-11-16T16:54:54.750Z,69.70
2022-11-16T16:56:58.735Z,72.13
2022-11-16T16:59:00.678Z,79.25
2022-11-16T17:01:05.132Z,77.90
2022-11-16T17:03:07.151Z,81.13
2022-11-16T17:05:11.475Z,77.03
2022-11-16T17:07:16.049Z,65.93
2022-11-16T17:09:18.078Z,75.65
2022-11-16T17:11:19.940Z,88.05
2022-11-16T17:13:22.847Z,94.25
2022-11-16T17:15:25.143Z,100.30
2022-11-16T17:17:27.146Z,121.50
2022-11-16T17:19:29.811Z,128.07
2022-11-16T17:21:32.071Z,135.40
2022-11-16T17:23:36.038Z,131.23
2022-11-16T17:25:38.589Z,135.70
2022-11-16T17:29:42.914Z,125.05
2022-11-16T17:31:53.343Z,120.88
2022-11-16T17:33:59.841Z,126.90
2022-11-16T17:36:04.819Z,134.27
2022-11-16T17:38:07.352Z,101.22
2022-11-16T17:40:14.859Z,128.02
2022-11-16T17:42:54.292Z,133.95
2022-11-16T17:45:05.215Z,125.22
2022-11-16T17:47:13.510Z,102.93
2022-11-16T17:49:16.780Z,114.65
2022-11-16T17:51:28.526Z,117.78
2022-11-16T17:53:33.025Z,100.72
2022-11-16T17:55:39.514Z,95.43
2022-11-16T17:57:43.241Z,82.50
2022-11-16T17:59:48.079Z,66.93
2022-11-16T20:15:30.253Z,65.38
2022-11-16T20:17:32.088Z,81.68
2022-11-16T20:19:33.941Z,87.75
2022-11-16T20:21:41.010Z,101.45
2022-11-16T20:23:44.627Z,99.25
2022-11-16T20:25:46.519Z,101.30
2022-11-16T20:27:48.409Z,105.93
2022-11-16T20:29:50.272Z,99.25
2022-11-16T20:31:52.193Z,94.70
2022-11-16T20:33:59.367Z,87.38
2022-11-16T20:36:02.956Z,87.28
2022-11-16T20:38:05.114Z,87.72
2022-11-16T20:42:09.513Z,88.10
2022-11-16T20:44:16.794Z,88.40
2022-11-16T20:46:20.317Z,93.22
2022-11-16T20:48:22.189Z,95.75
2022-11-16T20:50:24.232Z,90.00
2022-11-16T20:52:26.186Z,76.85
2022-11-16T20:54:28.579Z,94.00
2022-11-16T20:56:30.783Z,98.28
2022-11-16T21:00:34.988Z,84.07
2022-11-16T21:02:36.955Z,83.55
2022-11-16T21:04:38.851Z,75.25
2022-11-16T21:06:40.844Z,79.40
2022-11-16T21:08:42.929Z,82.88
2022-11-16T21:13:05.598Z,87.60
2022-11-16T21:15:08.224Z,80.07
2022-11-16T21:17:10.261Z,97.40
2022-11-16T21:21:14.961Z,91.78
2022-11-16T21:23:16.918Z,97.47
2022-11-16T21:25:18.764Z,92.70
2022-11-16T21:27:20.604Z,99.32
2022-11-16T21:29:26.160Z,94.75
2022-11-16T21:31:30.326Z,94.55
2022-11-16T21:33:33.104Z,84.72
2022-11-16T21:35:35.382Z,97.30
2022-11-16T21:37:37.523Z,82.18
2022-11-16T21:41:41.270Z,83.60
2022-11-16T21:43:44.084Z,78.18
2022-11-16T21:45:47.577Z,87.55
2022-11-16T21:47:50.711Z,95.13
2022-11-16T21:50:24.861Z,95.80
2022-11-16T21:52:18.538Z,88.60
2022-11-16T21:54:20.472Z,104.03
2022-11-16T21:56:24.425Z,95.50
2022-11-16T21:58:26.871Z,94.35
2022-11-16T22:00:29.185Z,102.13
2022-11-16T22:02:32.917Z,94.68
2022-11-16T22:04:53.829Z,100.10
2022-11-16T22:07:14.277Z,104.55
2022-11-16T22:09:16.871Z,107.03
2022-11-16T22:11:39.745Z,102.40
2022-11-16T22:13:42.914Z,100.85
2022-11-16T22:15:44.967Z,112.63
2022-11-16T22:19:49.099Z,116.18
2022-11-16T22:21:51.185Z,105.63
2022-11-16T22:25:59.916Z,104.95
2022-11-16T22:30:23.809Z,103.20
2022-11-16T22:32:25.729Z,102.53
2022-11-16T22:34:27.757Z,112.35
2022-11-16T22:36:29.612Z,96.78
2022-11-16T22:38:31.700Z,105.70
2022-11-16T22:42:35.301Z,98.10
2022-11-16T22:44:37.284Z,105.93
2022-11-16T22:46:39.243Z,104.20
2022-11-16T22:48:41.223Z,100.93
2022-11-16T22:50:43.720Z,106.88
2022-11-16T22:52:45.917Z,109.05
2022-11-16T22:54:47.824Z,105.80
2022-11-16T22:56:49.698Z,113.35
2022-11-16T22:58:51.995Z,117.47
2022-11-16T23:00:53.857Z,115.20
2022-11-16T23:02:55.765Z,110.00
2022-11-16T23:04:57.645Z,115.47
2022-11-16T23:07:00.453Z,118.03
2022-11-16T23:09:02.390Z,116.82
2022-11-16T23:11:25.976Z,109.00
2022-11-16T23:13:46.483Z,103.38
2022-11-16T23:15:51.125Z,106.10
2022-11-16T23:17:52.971Z,111.57
2022-11-16T23:20:17.656Z,103.32
2022-11-16T23:22:40.438Z,110.50
2022-11-16T23:25:01.894Z,106.55
2022-11-16T23:27:23.237Z,108.10
2022-11-16T23:29:25.170Z,108.95
2022-11-16T23:31:27.011Z,105.20
2022-11-16T23:33:44.125Z,100.95
2022-11-16T23:35:46.073Z,93.00
2022-11-16T23:37:56.467Z,95.75
2022-11-16T23:39:58.324Z,92.85
2022-11-16T23:42:19.001Z,96.38
2022-11-16T23:44:20.883Z,94.93
2022-11-16T23:46:22.752Z,88.20
2022-11-16T23:48:25.076Z,89.38
2022-11-16T23:50:26.989Z,88.10
2022-11-16T23:52:28.823Z,93.72
2022-11-16T23:54:30.702Z,86.93
2022-11-16T23:56:32.585Z,92.20
2022-11-16T23:58:34.458Z,89.53
